createdAt,value
2019-02-22T09:27:03.755Z,-4.00
2019-02-22T09:29:36.972Z,-4.00
2019-02-22T09:32:08.017Z,-3.90
2019-02-22T09:34:39.046Z,-3.80
2019-02-22T09:37:29.705Z,-3.70
2019-02-22T09:40:00.327Z,-3.60
2019-02-22T09:42:34.329Z,-3.50
2019-02-22T09:45:06.959Z,-3.60
2019-02-22T09:47:37.466Z,-3.50
2019-02-22T09:50:08.257Z,-3.40
2019-02-22T09:52:37.872Z,-3.50
2019-02-22T09:55:12.161Z,-3.40
2019-02-22T09:57:47.261Z,-3.30
2019-02-22T10:00:20.041Z,-3.20
2019-02-22T10:02:52.371Z,-3.30
2019-02-22T10:05:23.210Z,-3.10
2019-02-22T10:07:54.353Z,-3.10
2019-02-22T10:10:28.199Z,-3.00
2019-02-22T10:12:58.870Z,-2.90
2019-02-22T10:15:29.869Z,-2.90
2019-02-22T10:18:03.883Z,-2.90
2019-02-22T10:20:34.254Z,-2.90
2019-02-22T10:23:04.333Z,-2.80
2019-02-22T10:25:35.948Z,-2.80
2019-02-22T10:28:17.265Z,-2.70
2019-02-22T10:30:42.934Z,-2.70
2019-02-22T10:33:13.321Z,-2.60
2019-02-22T10:35:42.365Z,-2.50
2019-02-22T10:38:11.140Z,-2.50
2019-02-22T10:41:06.647Z,-2.40
2019-02-22T10:43:38.869Z,-2.30
2019-02-22T10:46:09.962Z,-2.30
2019-02-22T10:48:42.606Z,-2.30
2019-02-22T10:51:15.057Z,-2.20
2019-02-22T10:53:48.589Z,-2.20
2019-02-22T10:56:21.929Z,-2.10
2019-02-22T10:58:54.409Z,-2.10
2019-02-22T11:01:26.825Z,-2.00
2019-02-22T11:03:59.222Z,-1.90
2019-02-22T11:06:31.176Z,-1.90
2019-02-22T11:09:08.630Z,-1.90
2019-02-22T11:11:41.226Z,-1.80
2019-02-22T11:14:15.372Z,-1.80
2019-02-22T11:16:49.930Z,-1.70
2019-02-22T11:19:26.678Z,-1.70
2019-02-22T11:21:58.537Z,-1.60
2019-02-22T11:24:33.633Z,-1.50
2019-02-22T11:27:04.631Z,-1.50
2019-02-22T11:29:37.174Z,-1.50
2019-02-22T11:32:11.033Z,-1.40
2019-02-22T11:34:47.306Z,-1.40
2019-02-22T11:37:20.985Z,-1.40
2019-02-22T11:39:52.117Z,-1.40
2019-02-22T11:42:22.319Z,-1.30
2019-02-22T11:44:51.899Z,-1.20
2019-02-22T11:47:23.517Z,-1.20
2019-02-22T11:49:56.152Z,-1.10
2019-02-22T11:52:29.774Z,-1.10
2019-02-22T11:55:01.741Z,-1.10
2019-02-22T11:57:36.642Z,-1.10
2019-02-22T12:00:08.685Z,-1.10
2019-02-22T12:02:40.746Z,-1.10
2019-02-22T12:05:12.839Z,-1.00
2019-02-22T12:07:43.152Z,-0.90
2019-02-22T12:10:12.093Z,-0.90
2019-02-22T12:12:43.143Z,-0.90
2019-02-22T12:15:14.838Z,-0.80
2019-02-22T12:17:51.573Z,-0.80
2019-02-22T12:20:26.802Z,-0.70
2019-02-22T12:23:44.306Z,-0.70
2019-02-22T12:26:16.853Z,-0.70
2019-02-22T12:28:47.815Z,-0.60
2019-02-22T12:31:20.303Z,-0.60
2019-02-22T12:33:53.876Z,-0.60
2019-02-22T12:36:43.116Z,-0.60
2019-02-22T12:39:13.159Z,-0.60
2019-02-22T12:41:44.621Z,-0.50
2019-02-22T12:44:17.961Z,-0.40
2019-02-22T12:46:47.670Z,-0.40
2019-02-22T12:49:20.685Z,-0.30
2019-02-22T12:51:53.160Z,-0.40
2019-02-22T12:54:26.753Z,-0.30
2019-02-22T12:57:01.157Z,-0.30
2019-02-22T12:59:35.064Z,-0.20
2019-02-22T13:02:06.545Z,-0.20
2019-02-22T13:04:38.866Z,-0.20
2019-02-22T13:07:10.224Z,-0.20
2019-02-22T13:09:42.647Z,-0.20
2019-02-22T13:12:17.356Z,-0.10
2019-02-22T13:14:49.814Z,-0.10
2019-02-22T13:17:30.522Z,-0.20
2019-02-22T13:19:53.884Z,-0.10
2019-02-22T13:22:25.597Z,-0.10
2019-02-22T13:24:57.185Z,-0.10
2019-02-22T13:27:29.905Z,-0.10
2019-02-22T13:30:01.450Z,-0.10
2019-02-22T13:32:35.013Z,0.00
2019-02-22T13:35:05.689Z,-0.10
2019-02-22T13:37:39.482Z,-0.10
2019-02-22T13:40:11.177Z,0.00
2019-02-22T13:42:42.778Z,-0.10
2019-02-22T13:45:12.468Z,-0.10
2019-02-22T13:47:49.100Z,-0.10
2019-02-22T13:50:20.587Z,-0.10
2019-02-22T13:52:53.673Z,-0.10
2019-02-22T13:55:30.687Z,-0.10
2019-02-22T13:58:02.257Z,-0.10
2019-02-22T14:00:33.655Z,-0.20
2019-02-22T14:03:05.701Z,-0.20
2019-02-22T14:05:36.045Z,-0.30
2019-02-22T14:08:05.388Z,-0.20
2019-02-22T14:10:37.065Z,-0.30
2019-02-22T14:28:08.547Z,-0.30
2019-02-22T14:30:37.580Z,-0.30
2019-02-22T14:33:06.772Z,-0.20
2019-02-22T14:35:38.313Z,-0.30
2019-02-22T14:38:08.911Z,-0.30
2019-02-22T14:40:37.991Z,-0.30
2019-02-22T14:43:16.029Z,-0.30
2019-02-22T14:45:48.511Z,-0.40
2019-02-22T14:48:10.026Z,-0.40
2019-02-22T14:50:41.852Z,-0.50
2019-02-22T14:53:19.672Z,-0.50
2019-02-22T14:55:45.105Z,-0.60
2019-02-22T14:58:17.546Z,-0.60
2019-02-22T15:00:51.438Z,-0.50
2019-02-22T15:03:24.521Z,-0.50
2019-02-22T15:05:57.966Z,-0.60
2019-02-22T15:08:29.093Z,-0.50
2019-02-22T15:11:02.632Z,-0.60
2019-02-22T15:13:34.605Z,-0.60
2019-02-22T15:16:27.181Z,-0.70
2019-02-22T15:18:59.738Z,-0.70
2019-02-22T15:21:34.368Z,-0.80
2019-02-22T15:24:04.968Z,-0.70
2019-02-22T15:26:36.472Z,-0.80
2019-02-22T15:29:08.437Z,-0.90
2019-02-22T15:31:44.490Z,-0.90
2019-02-22T15:34:15.890Z,-0.90
2019-02-22T15:36:47.281Z,-0.90
2019-02-22T15:39:20.798Z,-0.90
2019-02-22T15:41:52.432Z,-0.90
2019-02-22T15:44:25.135Z,-0.90
2019-02-22T15:46:57.683Z,-0.90
2019-02-22T15:49:28.481Z,-0.90
2019-02-22T15:51:59.880Z,-0.90
2019-02-22T15:54:30.346Z,-0.90
2019-02-22T15:57:03.864Z,-0.90
2019-02-22T15:59:33.538Z,-1.00
2019-02-22T16:02:04.110Z,-0.90
2019-02-22T16:04:52.884Z,-1.00
2019-02-22T16:07:24.331Z,-1.00
2019-02-22T16:09:54.642Z,-1.00
2019-02-22T16:12:23.778Z,-1.00
2019-02-22T16:14:53.549Z,-1.00
2019-02-22T16:17:24.397Z,-1.00
2019-02-22T16:19:56.828Z,-1.00
2019-02-22T16:22:29.372Z,-1.00
2019-02-22T16:25:03.189Z,-1.10
2019-02-22T16:27:35.313Z,-1.00
2019-02-22T16:30:07.793Z,-1.10
2019-02-22T16:32:39.260Z,-1.10
2019-02-22T16:35:11.567Z,-1.10
2019-02-22T16:37:43.184Z,-1.10
2019-02-22T16:40:27.856Z,-1.10
2019-02-22T16:42:59.600Z,-1.10
2019-02-22T16:45:32.778Z,-1.10
2019-02-22T16:48:06.173Z,-1.10
2019-02-22T16:50:38.509Z,-1.10
2019-02-22T16:53:13.517Z,-1.10
2019-02-22T16:55:45.001Z,-1.20
2019-02-22T16:58:16.576Z,-1.10
2019-02-22T17:00:48.039Z,-1.10
2019-02-22T17:03:19.467Z,-1.20
2019-02-22T17:05:50.965Z,-1.10
2019-02-22T17:08:23.553Z,-1.10
2019-02-22T17:10:53.961Z,-1.10
2019-02-22T17:13:26.389Z,-1.10
2019-02-22T17:15:56.249Z,-1.10
2019-02-22T17:18:25.307Z,-1.10
2019-02-22T17:20:54.580Z,-1.10
2019-02-22T17:23:26.183Z,-1.10
2019-02-22T17:25:57.584Z,-1.10
2019-02-22T17:28:33.016Z,-1.10
2019-02-22T17:31:04.437Z,-1.10
2019-02-22T17:33:36.215Z,-1.10
2019-02-22T17:36:11.167Z,-1.10
2019-02-22T17:38:43.597Z,-1.10
2019-02-22T17:41:14.672Z,-1.10
2019-02-22T17:43:44.126Z,-1.00
2019-02-22T17:46:17.866Z,-1.00
2019-02-22T17:48:49.365Z,-1.00
2019-02-22T17:51:23.755Z,-1.00
2019-02-22T17:53:56.052Z,-0.90
2019-02-22T17:56:30.729Z,-0.90
2019-02-22T17:59:06.714Z,-1.00
2019-02-22T18:01:39.477Z,-1.00
2019-02-22T18:04:15.405Z,-1.00
2019-02-22T18:06:50.475Z,-1.00
2019-02-22T18:09:21.489Z,-1.00
2019-02-22T18:11:50.816Z,-1.00
2019-02-22T18:14:21.003Z,-0.90
2019-02-22T18:16:50.381Z,-1.00
2019-02-22T18:19:20.640Z,-0.90
2019-02-22T18:21:50.338Z,-0.90
2019-02-22T18:24:22.840Z,-0.90
2019-02-22T18:26:55.505Z,-0.90
2019-02-22T18:29:34.870Z,-0.90
2019-02-22T18:31:57.044Z,-0.90
2019-02-22T18:34:27.724Z,-0.80
2019-02-22T18:36:56.746Z,-0.90
2019-02-22T18:39:28.404Z,-0.90
2019-02-22T18:42:00.784Z,-0.90
2019-02-22T18:44:32.492Z,-0.90
2019-02-22T18:47:05.550Z,-0.80
2019-02-22T18:49:36.888Z,-0.80
2019-02-22T18:52:06.346Z,-0.80
2019-02-22T18:54:37.449Z,-0.80
2019-02-22T18:57:09.112Z,-0.80
2019-02-22T18:59:39.497Z,-0.80
2019-02-22T19:02:10.410Z,-0.80
2019-02-22T19:04:41.832Z,-0.70
2019-02-22T19:07:14.004Z,-0.80
2019-02-22T19:09:44.907Z,-0.80
2019-02-22T19:12:15.473Z,-0.90
2019-02-22T19:14:47.179Z,-0.80
2019-02-22T19:17:29.881Z,-0.80
2019-02-22T19:19:54.571Z,-0.70
2019-02-22T19:22:27.089Z,-0.70
2019-02-22T19:24:59.062Z,-0.70
2019-02-22T19:27:31.760Z,-0.70
2019-02-22T19:30:04.338Z,-0.80
2019-02-22T19:32:35.257Z,-0.70
2019-02-22T19:35:05.365Z,-0.70
2019-02-22T19:37:37.232Z,-0.70
2019-02-22T19:40:10.246Z,-0.70
2019-02-22T19:42:43.293Z,-0.70
2019-02-22T19:45:15.915Z,-0.70
2019-02-22T19:47:51.916Z,-0.70
2019-02-22T19:50:23.102Z,-0.70
2019-02-22T19:52:55.122Z,-0.70
2019-02-22T19:55:27.627Z,-0.60
2019-02-22T19:57:59.321Z,-0.60
2019-02-22T20:00:30.225Z,-0.70
2019-02-22T20:03:05.524Z,-0.70
2019-02-22T20:05:37.493Z,-0.70
2019-02-22T20:08:07.104Z,-0.70
2019-02-22T20:10:36.651Z,-0.70
2019-02-22T20:13:07.180Z,-0.70
2019-02-22T20:15:37.981Z,-0.70
2019-02-22T20:18:11.290Z,-0.60
2019-02-22T20:20:43.498Z,-0.60
2019-02-22T20:23:15.204Z,-0.60
2019-02-22T20:25:48.490Z,-0.70
2019-02-22T20:28:19.132Z,-0.70
2019-02-22T20:30:50.004Z,-0.70
2019-02-22T20:33:24.224Z,-0.70
2019-02-22T20:35:55.785Z,-0.70
2019-02-22T20:38:28.340Z,-0.70
2019-02-22T20:41:00.936Z,-0.70
2019-02-22T20:43:32.937Z,-0.60
2019-02-22T20:46:05.460Z,-0.60
2019-02-22T20:48:40.149Z,-0.60
2019-02-22T20:51:11.979Z,-0.60
2019-02-22T20:53:43.954Z,-0.60
2019-02-22T20:56:15.820Z,-0.50
2019-02-22T20:58:47.177Z,-0.50
2019-02-22T21:01:21.202Z,-0.50
2019-02-22T21:03:53.130Z,-0.50
2019-02-22T21:06:27.165Z,-0.40
2019-02-22T21:09:01.057Z,-0.40
2019-02-22T21:11:31.992Z,-0.50
2019-02-22T21:14:03.308Z,-0.50
2019-02-22T21:16:35.860Z,-0.50
2019-02-22T21:19:06.170Z,-0.50
2019-02-22T21:21:35.979Z,-0.50
2019-02-22T21:24:10.022Z,-0.40
2019-02-22T21:26:41.364Z,-0.40
2019-02-22T21:29:12.010Z,-0.40
2019-02-22T21:31:44.767Z,-0.40
2019-02-22T21:34:15.562Z,-0.40
2019-02-22T21:36:46.672Z,-0.40
2019-02-22T21:39:19.003Z,-0.40
2019-02-22T21:41:52.368Z,-0.40
2019-02-22T21:44:23.104Z,-0.40
2019-02-22T21:46:54.955Z,-0.30
2019-02-22T21:49:24.997Z,-0.40
2019-02-22T21:51:54.619Z,-0.30
2019-02-22T21:54:27.178Z,-0.30
2019-02-22T21:56:58.504Z,-0.30
2019-02-22T21:59:28.697Z,-0.30
2019-02-22T22:02:02.099Z,-0.30
2019-02-22T22:04:32.905Z,-0.30
2019-02-22T22:07:04.661Z,-0.30
2019-02-22T22:09:34.893Z,-0.20
2019-02-22T22:12:09.392Z,-0.20
2019-02-22T22:14:42.922Z,-0.20
2019-02-22T22:17:14.961Z,-0.20
2019-02-22T22:19:46.904Z,-0.20
2019-02-22T22:22:21.243Z,-0.20
2019-02-22T22:24:53.820Z,-0.20
2019-02-22T22:27:28.274Z,-0.10
2019-02-22T22:30:01.001Z,-0.10
2019-02-22T22:32:32.296Z,-0.10
2019-02-22T22:35:03.307Z,-0.10
2019-02-22T22:37:34.479Z,-0.10
2019-02-22T22:40:07.186Z,-0.10
2019-02-22T22:42:38.554Z,-0.10
2019-02-22T22:45:12.144Z,-0.10
2019-02-22T22:47:42.059Z,-0.10
2019-02-22T22:50:13.066Z,-0.10
2019-02-22T22:52:44.073Z,-0.10
2019-02-22T22:55:18.590Z,-0.10
2019-02-22T22:57:54.050Z,-0.10
2019-02-22T23:00:42.472Z,-0.10
2019-02-22T23:03:12.146Z,-0.10
2019-02-22T23:05:41.842Z,0.00
2019-02-22T23:08:15.247Z,0.00
2019-02-22T23:10:46.273Z,0.00
2019-02-22T23:13:18.857Z,0.00
2019-02-22T23:15:49.914Z,0.00
2019-02-22T23:18:23.208Z,0.00
2019-02-22T23:20:54.093Z,0.00
2019-02-22T23:23:26.956Z,0.10
2019-02-22T23:26:01.231Z,0.10
2019-02-22T23:28:31.501Z,0.10
2019-02-22T23:31:04.902Z,0.10
2019-02-22T23:33:36.954Z,0.10
2019-02-22T23:36:09.384Z,0.10
2019-02-22T23:38:40.552Z,0.10
2019-02-22T23:41:13.356Z,0.10
2019-02-22T23:43:45.962Z,0.10
2019-02-22T23:46:19.796Z,0.20
2019-02-22T23:48:54.467Z,0.10
2019-02-22T23:51:27.083Z,0.20
2019-02-22T23:54:05.181Z,0.20
2019-02-22T23:56:35.547Z,0.20
2019-02-22T23:59:07.089Z,0.20
